sensor_id;sensor_type;location;lat;lon;timestamp;temperature;humidity
4651;DHT22;2338;49.602;8.722;2024-02-28T00:01:28;5.30;99.90
4651;DHT22;2338;49.602;8.722;2024-02-28T00:04:14;5.20;99.90
4651;DHT22;2338;49.602;8.722;2024-02-28T00:07:00;5.10;99.90
4651;DHT22;2338;49.602;8.722;2024-02-28T00:09:45;5.10;99.90
4651;DHT22;2338;49.602;8.722;2024-02-28T00:12:31;5.10;99.90
4651;DHT22;2338;49.602;8.722;2024-02-28T00:15:18;5.00;99.90
4651;DHT22;2338;49.602;8.722;2024-02-28T00:18:05;5.00;99.90
4651;DHT22;2338;49.602;8.722;2024-02-28T00:20:50;5.00;99.90
4651;DHT22;2338;49.602;8.722;2024-02-28T00:23:38;5.10;99.90
4651;DHT22;2338;49.602;8.722;2024-02-28T00:26:24;5.00;99.90
4651;DHT22;2338;49.602;8.722;2024-02-28T00:29:09;5.00;99.90
4651;DHT22;2338;49.602;8.722;2024-02-28T00:31:55;4.90;99.90
4651;DHT22;2338;49.602;8.722;2024-02-28T00:34:42;5.00;99.90
4651;DHT22;2338;49.602;8.722;2024-02-28T00:37:28;4.90;99.90
4651;DHT22;2338;49.602;8.722;2024-02-28T00:40:14;4.80;99.90
4651;DHT22;2338;49.602;8.722;2024-02-28T00:42:59;4.90;99.90
4651;DHT22;2338;49.602;8.722;2024-02-28T00:45:46;4.80;99.90
4651;DHT22;2338;49.602;8.722;2024-02-28T00:48:31;4.70;99.90
4651;DHT22;2338;49.602;8.722;2024-02-28T00:51:18;4.70;99.90
4651;DHT22;2338;49.602;8.722;2024-02-28T00:54:04;4.80;99.90
4651;DHT22;2338;49.602;8.722;2024-02-28T00:56:49;4.70;99.90
4651;DHT22;2338;49.602;8.722;2024-02-28T00:59:35;4.60;99.90
4651;DHT22;2338;49.602;8.722;2024-02-28T01:02:21;4.60;99.90
4651;DHT22;2338;49.602;8.722;2024-02-28T01:05:07;4.40;99.90
4651;DHT22;2338;49.602;8.722;2024-02-28T01:07:54;4.40;99.90
4651;DHT22;2338;49.602;8.722;2024-02-28T01:10:41;4.30;99.90
4651;DHT22;2338;49.602;8.722;2024-02-28T01:13:27;4.40;99.90
4651;DHT22;2338;49.602;8.722;2024-02-28T01:16:14;4.40;99.90
4651;DHT22;2338;49.602;8.722;2024-02-28T01:19:00;4.50;99.90
4651;DHT22;2338;49.602;8.722;2024-02-28T01:21:47;4.50;99.90
4651;DHT22;2338;49.602;8.722;2024-02-28T01:24:34;4.50;99.90
4651;DHT22;2338;49.602;8.722;2024-02-28T01:27:20;4.40;99.90
4651;DHT22;2338;49.602;8.722;2024-02-28T01:30:07;4.30;99.90
4651;DHT22;2338;49.602;8.722;2024-02-28T01:32:53;4.20;99.90
4651;DHT22;2338;49.602;8.722;2024-02-28T01:35:38;4.10;99.90
4651;DHT22;2338;49.602;8.722;2024-02-28T01:38:24;4.00;99.90
4651;DHT22;2338;49.602;8.722;2024-02-28T01:41:12;4.00;99.90
4651;DHT22;2338;49.602;8.722;2024-02-28T01:43:57;3.90;99.90
4651;DHT22;2338;49.602;8.722;2024-02-28T01:46:44;4.00;99.90
4651;DHT22;2338;49.602;8.722;2024-02-28T01:49:30;3.90;99.90
4651;DHT22;2338;49.602;8.722;2024-02-28T01:52:16;3.90;99.90
4651;DHT22;2338;49.602;8.722;2024-02-28T01:55:02;3.90;99.90
4651;DHT22;2338;49.602;8.722;2024-02-28T01:57:49;3.80;99.90
4651;DHT22;2338;49.602;8.722;2024-02-28T02:00:34;3.80;99.90
4651;DHT22;2338;49.602;8.722;2024-02-28T02:03:21;3.80;99.90
4651;DHT22;2338;49.602;8.722;2024-02-28T02:06:07;3.80;99.90
4651;DHT22;2338;49.602;8.722;2024-02-28T02:08:53;3.80;99.90
4651;DHT22;2338;49.602;8.722;2024-02-28T02:11:39;3.80;99.90
4651;DHT22;2338;49.602;8.722;2024-02-28T02:14:26;3.80;99.90
4651;DHT22;2338;49.602;8.722;2024-02-28T02:17:11;3.70;99.90
4651;DHT22;2338;49.602;8.722;2024-02-28T02:19:56;3.60;99.90
4651;DHT22;2338;49.602;8.722;2024-02-28T02:22:44;3.60;99.90
4651;DHT22;2338;49.602;8.722;2024-02-28T02:25:30;3.60;99.90
4651;DHT22;2338;49.602;8.722;2024-02-28T02:28:16;3.60;99.90
4651;DHT22;2338;49.602;8.722;2024-02-28T02:31:01;3.70;99.90
4651;DHT22;2338;49.602;8.722;2024-02-28T02:33:47;3.60;99.90
4651;DHT22;2338;49.602;8.722;2024-02-28T02:36:33;3.60;99.90
4651;DHT22;2338;49.602;8.722;2024-02-28T02:39:20;3.70;99.90
4651;DHT22;2338;49.602;8.722;2024-02-28T02:42:06;3.80;99.90
4651;DHT22;2338;49.602;8.722;2024-02-28T02:44:52;3.80;99.90
4651;DHT22;2338;49.602;8.722;2024-02-28T02:47:38;3.70;99.90
4651;DHT22;2338;49.602;8.722;2024-02-28T02:50:23;3.50;99.90
4651;DHT22;2338;49.602;8.722;2024-02-28T02:53:10;3.50;99.90
4651;DHT22;2338;49.602;8.722;2024-02-28T02:55:57;3.40;99.90
4651;DHT22;2338;49.602;8.722;2024-02-28T02:58:42;3.40;99.90
4651;DHT22;2338;49.602;8.722;2024-02-28T03:01:28;3.40;99.90
4651;DHT22;2338;49.602;8.722;2024-02-28T03:04:14;3.50;99.90
4651;DHT22;2338;49.602;8.722;2024-02-28T03:07:00;3.50;99.90
4651;DHT22;2338;49.602;8.722;2024-02-28T03:09:45;3.50;99.90
4651;DHT22;2338;49.602;8.722;2024-02-28T03:12:32;3.40;99.90
4651;DHT22;2338;49.602;8.722;2024-02-28T03:15:18;3.20;99.90
4651;DHT22;2338;49.602;8.722;2024-02-28T03:18:04;3.20;99.90
4651;DHT22;2338;49.602;8.722;2024-02-28T03:20:50;3.10;99.90
4651;DHT22;2338;49.602;8.722;2024-02-28T03:23:35;3.10;99.90
4651;DHT22;2338;49.602;8.722;2024-02-28T03:26:21;3.00;99.90
4651;DHT22;2338;49.602;8.722;2024-02-28T03:29:08;3.10;99.90
4651;DHT22;2338;49.602;8.722;2024-02-28T03:31:54;3.30;99.90
4651;DHT22;2338;49.602;8.722;2024-02-28T03:34:39;3.40;99.90
4651;DHT22;2338;49.602;8.722;2024-02-28T03:37:25;3.40;99.90
4651;DHT22;2338;49.602;8.722;2024-02-28T03:40:11;3.40;99.90
4651;DHT22;2338;49.602;8.722;2024-02-28T03:42:58;3.30;99.90
4651;DHT22;2338;49.602;8.722;2024-02-28T03:45:45;3.30;99.90
4651;DHT22;2338;49.602;8.722;2024-02-28T03:48:31;3.20;99.90
4651;DHT22;2338;49.602;8.722;2024-02-28T03:51:16;3.10;99.90
4651;DHT22;2338;49.602;8.722;2024-02-28T03:54:02;3.10;99.90
4651;DHT22;2338;49.602;8.722;2024-02-28T03:56:48;3.00;99.90
4651;DHT22;2338;49.602;8.722;2024-02-28T03:59:34;3.10;99.90
4651;DHT22;2338;49.602;8.722;2024-02-28T04:02:21;3.00;99.90
4651;DHT22;2338;49.602;8.722;2024-02-28T04:05:07;2.90;99.90
4651;DHT22;2338;49.602;8.722;2024-02-28T04:07:52;2.90;99.90
4651;DHT22;2338;49.602;8.722;2024-02-28T04:10:38;2.80;99.90
4651;DHT22;2338;49.602;8.722;2024-02-28T04:13:24;2.90;99.90
4651;DHT22;2338;49.602;8.722;2024-02-28T04:16:10;3.00;99.90
4651;DHT22;2338;49.602;8.722;2024-02-28T04:18:57;3.00;99.90
4651;DHT22;2338;49.602;8.722;2024-02-28T04:21:42;3.00;99.90
4651;DHT22;2338;49.602;8.722;2024-02-28T04:24:28;3.00;99.90
4651;DHT22;2338;49.602;8.722;2024-02-28T04:27:14;3.10;99.90
4651;DHT22;2338;49.602;8.722;2024-02-28T04:30:00;2.80;99.90
4651;DHT22;2338;49.602;8.722;2024-02-28T04:32:45;2.80;99.90
4651;DHT22;2338;49.602;8.722;2024-02-28T04:35:32;2.80;99.90
4651;DHT22;2338;49.602;8.722;2024-02-28T04:38:18;2.90;99.90
4651;DHT22;2338;49.602;8.722;2024-02-28T04:41:04;2.90;99.90
4651;DHT22;2338;49.602;8.722;2024-02-28T04:43:49;2.80;99.90
4651;DHT22;2338;49.602;8.722;2024-02-28T04:46:37;2.70;99.90
4651;DHT22;2338;49.602;8.722;2024-02-28T04:49:22;2.70;99.90
4651;DHT22;2338;49.602;8.722;2024-02-28T04:52:09;2.70;99.90
4651;DHT22;2338;49.602;8.722;2024-02-28T04:54:55;2.60;99.90
4651;DHT22;2338;49.602;8.722;2024-02-28T04:57:41;2.60;99.90
4651;DHT22;2338;49.602;8.722;2024-02-28T05:00:26;2.60;99.90
4651;DHT22;2338;49.602;8.722;2024-02-28T05:03:12;2.70;99.90
4651;DHT22;2338;49.602;8.722;2024-02-28T05:05:58;2.70;99.90
4651;DHT22;2338;49.602;8.722;2024-02-28T05:08:45;2.70;99.90
4651;DHT22;2338;49.602;8.722;2024-02-28T05:11:30;2.70;99.90
4651;DHT22;2338;49.602;8.722;2024-02-28T05:14:16;2.70;99.90
4651;DHT22;2338;49.602;8.722;2024-02-28T05:17:02;2.90;99.90
4651;DHT22;2338;49.602;8.722;2024-02-28T05:19:47;2.90;99.90
4651;DHT22;2338;49.602;8.722;2024-02-28T05:22:33;2.90;99.90
4651;DHT22;2338;49.602;8.722;2024-02-28T05:25:20;2.90;99.90
4651;DHT22;2338;49.602;8.722;2024-02-28T05:28:05;2.80;99.90
4651;DHT22;2338;49.602;8.722;2024-02-28T05:30:51;2.90;99.90
4651;DHT22;2338;49.602;8.722;2024-02-28T05:33:37;2.90;99.90
4651;DHT22;2338;49.602;8.722;2024-02-28T05:36:23;3.10;99.90
4651;DHT22;2338;49.602;8.722;2024-02-28T05:39:09;3.20;99.90
4651;DHT22;2338;49.602;8.722;2024-02-28T05:41:56;3.20;99.90
4651;DHT22;2338;49.602;8.722;2024-02-28T05:44:42;3.20;99.90
4651;DHT22;2338;49.602;8.722;2024-02-28T05:47:28;3.30;99.90
4651;DHT22;2338;49.602;8.722;2024-02-28T05:50:14;3.30;99.90
4651;DHT22;2338;49.602;8.722;2024-02-28T05:52:59;3.40;99.90
4651;DHT22;2338;49.602;8.722;2024-02-28T05:55:45;3.40;99.90
4651;DHT22;2338;49.602;8.722;2024-02-28T05:58:32;3.40;99.90
4651;DHT22;2338;49.602;8.722;2024-02-28T06:01:18;3.50;99.90
4651;DHT22;2338;49.602;8.722;2024-02-28T06:04:04;3.50;99.90
4651;DHT22;2338;49.602;8.722;2024-02-28T06:06:50;3.70;99.90
4651;DHT22;2338;49.602;8.722;2024-02-28T06:09:35;3.60;99.90
4651;DHT22;2338;49.602;8.722;2024-02-28T06:12:22;3.60;99.90
4651;DHT22;2338;49.602;8.722;2024-02-28T06:15:09;3.70;99.90
4651;DHT22;2338;49.602;8.722;2024-02-28T06:17:56;3.70;99.90
4651;DHT22;2338;49.602;8.722;2024-02-28T06:20:42;3.70;99.90
4651;DHT22;2338;49.602;8.722;2024-02-28T06:23:28;3.80;99.90
4651;DHT22;2338;49.602;8.722;2024-02-28T06:26:13;3.90;99.90
4651;DHT22;2338;49.602;8.722;2024-02-28T06:29:01;4.00;99.90
4651;DHT22;2338;49.602;8.722;2024-02-28T06:31:51;4.00;99.90
4651;DHT22;2338;49.602;8.722;2024-02-28T06:34:37;4.20;99.90
4651;DHT22;2338;49.602;8.722;2024-02-28T06:37:23;4.20;99.90
4651;DHT22;2338;49.602;8.722;2024-02-28T06:40:09;4.10;99.90
4651;DHT22;2338;49.602;8.722;2024-02-28T06:42:54;4.10;99.90
4651;DHT22;2338;49.602;8.722;2024-02-28T06:45:40;4.20;99.90
4651;DHT22;2338;49.602;8.722;2024-02-28T06:48:27;4.30;99.90
4651;DHT22;2338;49.602;8.722;2024-02-28T06:51:13;4.30;99.90
4651;DHT22;2338;49.602;8.722;2024-02-28T06:54:01;4.30;99.90
4651;DHT22;2338;49.602;8.722;2024-02-28T06:56:47;4.40;99.90
4651;DHT22;2338;49.602;8.722;2024-02-28T06:59:33;4.50;99.90
4651;DHT22;2338;49.602;8.722;2024-02-28T07:02:19;4.50;99.90
4651;DHT22;2338;49.602;8.722;2024-02-28T07:05:06;4.60;99.90
4651;DHT22;2338;49.602;8.722;2024-02-28T07:07:52;4.70;99.90
4651;DHT22;2338;49.602;8.722;2024-02-28T07:10:37;4.70;99.90
4651;DHT22;2338;49.602;8.722;2024-02-28T07:13:27;4.70;99.90
4651;DHT22;2338;49.602;8.722;2024-02-28T07:16:13;4.80;99.90
4651;DHT22;2338;49.602;8.722;2024-02-28T07:18:59;4.80;99.90
4651;DHT22;2338;49.602;8.722;2024-02-28T07:21:46;4.80;99.90
4651;DHT22;2338;49.602;8.722;2024-02-28T07:24:31;4.90;99.90
4651;DHT22;2338;49.602;8.722;2024-02-28T07:27:17;5.00;99.90
4651;DHT22;2338;49.602;8.722;2024-02-28T07:30:04;4.90;99.90
4651;DHT22;2338;49.602;8.722;2024-02-28T07:32:50;5.00;99.90
4651;DHT22;2338;49.602;8.722;2024-02-28T07:35:44;5.00;99.90
4651;DHT22;2338;49.602;8.722;2024-02-28T07:38:31;5.00;99.90
4651;DHT22;2338;49.602;8.722;2024-02-28T07:41:17;4.90;99.90
4651;DHT22;2338;49.602;8.722;2024-02-28T07:44:03;5.00;99.90
4651;DHT22;2338;49.602;8.722;2024-02-28T07:46:48;5.00;99.90
4651;DHT22;2338;49.602;8.722;2024-02-28T07:49:35;5.10;99.90
4651;DHT22;2338;49.602;8.722;2024-02-28T07:52:21;5.10;99.90
4651;DHT22;2338;49.602;8.722;2024-02-28T07:55:08;5.10;99.90
4651;DHT22;2338;49.602;8.722;2024-02-28T07:57:54;5.20;99.90
4651;DHT22;2338;49.602;8.722;2024-02-28T08:00:40;5.20;99.90
4651;DHT22;2338;49.602;8.722;2024-02-28T08:03:27;5.30;99.90
4651;DHT22;2338;49.602;8.722;2024-02-28T08:06:13;5.30;99.90
4651;DHT22;2338;49.602;8.722;2024-02-28T08:09:00;5.30;99.90
4651;DHT22;2338;49.602;8.722;2024-02-28T08:11:49;5.30;99.90
4651;DHT22;2338;49.602;8.722;2024-02-28T08:14:35;5.40;99.90
4651;DHT22;2338;49.602;8.722;2024-02-28T08:17:21;5.50;99.90
4651;DHT22;2338;49.602;8.722;2024-02-28T08:20:07;5.50;99.90
4651;DHT22;2338;49.602;8.722;2024-02-28T08:22:53;5.50;99.90
4651;DHT22;2338;49.602;8.722;2024-02-28T08:25:41;5.50;99.90
4651;DHT22;2338;49.602;8.722;2024-02-28T08:28:28;5.50;99.90
4651;DHT22;2338;49.602;8.722;2024-02-28T08:31:14;5.60;99.90
4651;DHT22;2338;49.602;8.722;2024-02-28T08:34:00;5.60;99.90
4651;DHT22;2338;49.602;8.722;2024-02-28T08:36:48;5.70;99.90
4651;DHT22;2338;49.602;8.722;2024-02-28T08:39:34;5.70;99.90
4651;DHT22;2338;49.602;8.722;2024-02-28T08:42:20;5.70;99.90
4651;DHT22;2338;49.602;8.722;2024-02-28T08:45:08;5.60;99.90
4651;DHT22;2338;49.602;8.722;2024-02-28T08:47:53;5.40;99.90
4651;DHT22;2338;49.602;8.722;2024-02-28T08:50:42;5.50;99.90
4651;DHT22;2338;49.602;8.722;2024-02-28T08:53:27;5.50;99.90
4651;DHT22;2338;49.602;8.722;2024-02-28T08:56:13;5.60;99.90
4651;DHT22;2338;49.602;8.722;2024-02-28T08:58:59;5.70;99.90
4651;DHT22;2338;49.602;8.722;2024-02-28T09:01:46;5.80;99.90
4651;DHT22;2338;49.602;8.722;2024-02-28T09:04:31;5.80;99.90
4651;DHT22;2338;49.602;8.722;2024-02-28T09:07:17;5.90;99.90
4651;DHT22;2338;49.602;8.722;2024-02-28T09:10:04;5.90;99.90
4651;DHT22;2338;49.602;8.722;2024-02-28T09:12:50;6.00;99.90
4651;DHT22;2338;49.602;8.722;2024-02-28T09:15:35;6.00;99.90
4651;DHT22;2338;49.602;8.722;2024-02-28T09:18:23;6.00;99.90
4651;DHT22;2338;49.602;8.722;2024-02-28T09:21:09;6.10;99.90
4651;DHT22;2338;49.602;8.722;2024-02-28T09:23:54;6.10;99.90
4651;DHT22;2338;49.602;8.722;2024-02-28T09:26:40;6.20;99.90
4651;DHT22;2338;49.602;8.722;2024-02-28T09:29:26;6.30;99.90
4651;DHT22;2338;49.602;8.722;2024-02-28T09:32:11;6.30;99.90
4651;DHT22;2338;49.602;8.722;2024-02-28T09:35:00;6.30;99.90
4651;DHT22;2338;49.602;8.722;2024-02-28T09:37:46;6.30;99.90
4651;DHT22;2338;49.602;8.722;2024-02-28T09:40:31;6.30;99.90
4651;DHT22;2338;49.602;8.722;2024-02-28T09:43:23;6.30;99.90
4651;DHT22;2338;49.602;8.722;2024-02-28T09:46:11;6.40;99.90
4651;DHT22;2338;49.602;8.722;2024-02-28T09:48:57;6.40;99.90
4651;DHT22;2338;49.602;8.722;2024-02-28T09:51:49;6.60;99.90
4651;DHT22;2338;49.602;8.722;2024-02-28T09:54:35;6.70;99.90
4651;DHT22;2338;49.602;8.722;2024-02-28T09:57:21;6.80;99.90
4651;DHT22;2338;49.602;8.722;2024-02-28T10:00:13;7.10;99.90
4651;DHT22;2338;49.602;8.722;2024-02-28T10:03:00;7.40;99.90
4651;DHT22;2338;49.602;8.722;2024-02-28T10:05:47;7.60;99.90
4651;DHT22;2338;49.602;8.722;2024-02-28T10:08:33;7.90;99.90
4651;DHT22;2338;49.602;8.722;2024-02-28T10:11:21;8.10;99.90
4651;DHT22;2338;49.602;8.722;2024-02-28T10:14:06;8.20;99.90
4651;DHT22;2338;49.602;8.722;2024-02-28T10:16:52;8.40;99.90
4651;DHT22;2338;49.602;8.722;2024-02-28T10:19:39;8.70;99.90
4651;DHT22;2338;49.602;8.722;2024-02-28T10:22:25;8.80;99.90
4651;DHT22;2338;49.602;8.722;2024-02-28T10:25:12;9.00;99.90
4651;DHT22;2338;49.602;8.722;2024-02-28T10:28:00;9.10;99.90
4651;DHT22;2338;49.602;8.722;2024-02-28T10:30:46;9.30;99.90
4651;DHT22;2338;49.602;8.722;2024-02-28T10:33:32;9.40;99.90
4651;DHT22;2338;49.602;8.722;2024-02-28T10:36:20;9.50;99.90
4651;DHT22;2338;49.602;8.722;2024-02-28T10:39:06;9.60;99.90
4651;DHT22;2338;49.602;8.722;2024-02-28T10:41:55;9.70;99.90
4651;DHT22;2338;49.602;8.722;2024-02-28T10:44:42;9.70;99.90
4651;DHT22;2338;49.602;8.722;2024-02-28T10:47:28;10.00;99.90
4651;DHT22;2338;49.602;8.722;2024-02-28T10:50:15;10.20;99.90
4651;DHT22;2338;49.602;8.722;2024-02-28T10:53:02;10.50;99.90
4651;DHT22;2338;49.602;8.722;2024-02-28T10:55:49;10.60;99.90
4651;DHT22;2338;49.602;8.722;2024-02-28T10:58:46;10.60;99.90
4651;DHT22;2338;49.602;8.722;2024-02-28T11:01:36;10.80;99.90
4651;DHT22;2338;49.602;8.722;2024-02-28T11:04:22;11.10;99.90
4651;DHT22;2338;49.602;8.722;2024-02-28T11:07:08;11.30;99.90
4651;DHT22;2338;49.602;8.722;2024-02-28T11:09:54;11.40;99.90
4651;DHT22;2338;49.602;8.722;2024-02-28T11:12:40;11.60;99.90
4651;DHT22;2338;49.602;8.722;2024-02-28T11:15:28;11.80;99.90
4651;DHT22;2338;49.602;8.722;2024-02-28T11:18:14;11.90;99.90
4651;DHT22;2338;49.602;8.722;2024-02-28T11:20:59;12.10;99.90
4651;DHT22;2338;49.602;8.722;2024-02-28T11:23:46;12.10;99.90
4651;DHT22;2338;49.602;8.722;2024-02-28T11:26:32;12.20;99.90
4651;DHT22;2338;49.602;8.722;2024-02-28T11:29:22;12.20;99.90
4651;DHT22;2338;49.602;8.722;2024-02-28T11:32:10;12.20;99.90
4651;DHT22;2338;49.602;8.722;2024-02-28T11:34:56;12.30;98.40
4651;DHT22;2338;49.602;8.722;2024-02-28T11:37:45;12.50;99.00
4651;DHT22;2338;49.602;8.722;2024-02-28T11:40:31;12.50;96.20
4651;DHT22;2338;49.602;8.722;2024-02-28T11:43:17;12.50;95.20
4651;DHT22;2338;49.602;8.722;2024-02-28T11:46:08;12.80;94.40
4651;DHT22;2338;49.602;8.722;2024-02-28T11:48:56;12.70;89.20
4651;DHT22;2338;49.602;8.722;2024-02-28T11:51:41;12.60;85.20
4651;DHT22;2338;49.602;8.722;2024-02-28T11:54:27;12.60;90.00
4651;DHT22;2338;49.602;8.722;2024-02-28T11:57:13;12.70;87.60
4651;DHT22;2338;49.602;8.722;2024-02-28T12:00:05;12.70;86.90
4651;DHT22;2338;49.602;8.722;2024-02-28T12:02:51;12.70;86.90
4651;DHT22;2338;49.602;8.722;2024-02-28T12:05:42;12.80;83.40
4651;DHT22;2338;49.602;8.722;2024-02-28T12:08:28;12.90;80.10
4651;DHT22;2338;49.602;8.722;2024-02-28T12:11:14;13.00;79.90
4651;DHT22;2338;49.602;8.722;2024-02-28T12:13:59;13.20;73.60
4651;DHT22;2338;49.602;8.722;2024-02-28T12:16:48;13.20;75.60
4651;DHT22;2338;49.602;8.722;2024-02-28T12:19:34;13.20;71.40
4651;DHT22;2338;49.602;8.722;2024-02-28T12:22:21;13.10;72.90
4651;DHT22;2338;49.602;8.722;2024-02-28T12:25:07;13.20;72.20
4651;DHT22;2338;49.602;8.722;2024-02-28T12:27:53;13.40;69.20
4651;DHT22;2338;49.602;8.722;2024-02-28T12:30:40;13.50;66.00
4651;DHT22;2338;49.602;8.722;2024-02-28T12:33:26;13.60;65.30
4651;DHT22;2338;49.602;8.722;2024-02-28T12:36:12;13.70;63.40
4651;DHT22;2338;49.602;8.722;2024-02-28T12:38:59;13.70;66.80
4651;DHT22;2338;49.602;8.722;2024-02-28T12:41:45;13.70;61.30
4651;DHT22;2338;49.602;8.722;2024-02-28T12:44:31;13.80;60.10
4651;DHT22;2338;49.602;8.722;2024-02-28T12:47:16;13.60;59.70
4651;DHT22;2338;49.602;8.722;2024-02-28T12:50:03;13.80;63.80
4651;DHT22;2338;49.602;8.722;2024-02-28T12:52:48;13.90;56.90
4651;DHT22;2338;49.602;8.722;2024-02-28T12:55:39;14.00;56.60
4651;DHT22;2338;49.602;8.722;2024-02-28T12:58:24;14.10;53.70
4651;DHT22;2338;49.602;8.722;2024-02-28T13:01:12;14.00;43.50
4651;DHT22;2338;49.602;8.722;2024-02-28T13:03:58;13.90;53.50
4651;DHT22;2338;49.602;8.722;2024-02-28T13:06:43;14.00;52.40
4651;DHT22;2338;49.602;8.722;2024-02-28T13:09:29;14.10;51.70
4651;DHT22;2338;49.602;8.722;2024-02-28T13:12:16;14.40;54.00
4651;DHT22;2338;49.602;8.722;2024-02-28T13:15:05;14.30;47.20
4651;DHT22;2338;49.602;8.722;2024-02-28T13:17:50;13.90;42.40
4651;DHT22;2338;49.602;8.722;2024-02-28T13:20:37;13.80;46.30
4651;DHT22;2338;49.602;8.722;2024-02-28T13:23:24;14.10;51.40
4651;DHT22;2338;49.602;8.722;2024-02-28T13:26:11;14.20;46.60
4651;DHT22;2338;49.602;8.722;2024-02-28T13:29:03;14.40;46.30
4651;DHT22;2338;49.602;8.722;2024-02-28T13:31:48;14.70;44.30
4651;DHT22;2338;49.602;8.722;2024-02-28T13:34:33;14.60;40.50
4651;DHT22;2338;49.602;8.722;2024-02-28T13:37:19;14.50;36.20
4651;DHT22;2338;49.602;8.722;2024-02-28T13:40:06;14.70;37.30
4651;DHT22;2338;49.602;8.722;2024-02-28T13:42:52;14.90;37.50
4651;DHT22;2338;49.602;8.722;2024-02-28T13:45:39;15.10;39.50
4651;DHT22;2338;49.602;8.722;2024-02-28T13:48:27;15.40;31.10
4651;DHT22;2338;49.602;8.722;2024-02-28T13:51:14;15.40;25.40
4651;DHT22;2338;49.602;8.722;2024-02-28T13:54:01;15.50;29.40
4651;DHT22;2338;49.602;8.722;2024-02-28T13:56:46;15.60;25.50
4651;DHT22;2338;49.602;8.722;2024-02-28T13:59:32;15.70;24.20
4651;DHT22;2338;49.602;8.722;2024-02-28T14:02:20;15.70;24.70
4651;DHT22;2338;49.602;8.722;2024-02-28T14:05:06;15.80;23.00
4651;DHT22;2338;49.602;8.722;2024-02-28T14:07:53;15.80;19.90
4651;DHT22;2338;49.602;8.722;2024-02-28T14:10:38;15.60;22.40
4651;DHT22;2338;49.602;8.722;2024-02-28T14:13:24;15.50;22.70
4651;DHT22;2338;49.602;8.722;2024-02-28T14:16:10;15.50;18.60
4651;DHT22;2338;49.602;8.722;2024-02-28T14:18:57;15.10;19.80
4651;DHT22;2338;49.602;8.722;2024-02-28T14:21:43;15.00;22.30
4651;DHT22;2338;49.602;8.722;2024-02-28T14:24:28;15.40;23.70
4651;DHT22;2338;49.602;8.722;2024-02-28T14:27:14;15.70;21.10
4651;DHT22;2338;49.602;8.722;2024-02-28T14:30:00;16.00;20.70
4651;DHT22;2338;49.602;8.722;2024-02-28T14:32:46;16.20;19.70
4651;DHT22;2338;49.602;8.722;2024-02-28T14:35:34;16.10;18.90
4651;DHT22;2338;49.602;8.722;2024-02-28T14:38:23;16.30;20.40
4651;DHT22;2338;49.602;8.722;2024-02-28T14:41:09;16.20;17.70
4651;DHT22;2338;49.602;8.722;2024-02-28T14:43:54;16.40;18.30
4651;DHT22;2338;49.602;8.722;2024-02-28T14:46:40;15.80;19.40
4651;DHT22;2338;49.602;8.722;2024-02-28T14:49:26;15.10;21.50
4651;DHT22;2338;49.602;8.722;2024-02-28T14:52:13;14.40;23.10
4651;DHT22;2338;49.602;8.722;2024-02-28T14:54:59;14.00;23.00
4651;DHT22;2338;49.602;8.722;2024-02-28T14:57:46;13.50;26.60
4651;DHT22;2338;49.602;8.722;2024-02-28T15:00:31;13.20;30.60
4651;DHT22;2338;49.602;8.722;2024-02-28T15:03:17;12.90;33.90
4651;DHT22;2338;49.602;8.722;2024-02-28T15:06:03;12.80;35.00
4651;DHT22;2338;49.602;8.722;2024-02-28T15:08:50;12.60;37.80
4651;DHT22;2338;49.602;8.722;2024-02-28T15:11:36;12.50;37.50
4651;DHT22;2338;49.602;8.722;2024-02-28T15:14:21;12.50;38.50
4651;DHT22;2338;49.602;8.722;2024-02-28T15:17:07;12.40;38.40
4651;DHT22;2338;49.602;8.722;2024-02-28T15:19:53;12.30;37.30
4651;DHT22;2338;49.602;8.722;2024-02-28T15:22:39;12.40;39.40
4651;DHT22;2338;49.602;8.722;2024-02-28T15:25:27;12.30;37.70
4651;DHT22;2338;49.602;8.722;2024-02-28T15:28:13;12.20;40.40
4651;DHT22;2338;49.602;8.722;2024-02-28T15:30:58;12.40;38.40
4651;DHT22;2338;49.602;8.722;2024-02-28T15:33:44;12.50;35.40
4651;DHT22;2338;49.602;8.722;2024-02-28T15:36:30;12.70;35.80
4651;DHT22;2338;49.602;8.722;2024-02-28T15:39:15;12.70;36.10
4651;DHT22;2338;49.602;8.722;2024-02-28T15:42:02;12.60;35.30
4651;DHT22;2338;49.602;8.722;2024-02-28T15:44:48;12.50;36.50
4651;DHT22;2338;49.602;8.722;2024-02-28T15:47:34;12.30;40.50
4651;DHT22;2338;49.602;8.722;2024-02-28T15:50:19;12.00;48.80
4651;DHT22;2338;49.602;8.722;2024-02-28T15:53:05;11.80;54.80
4651;DHT22;2338;49.602;8.722;2024-02-28T15:55:51;11.70;67.90
4651;DHT22;2338;49.602;8.722;2024-02-28T15:58:38;11.50;70.00
4651;DHT22;2338;49.602;8.722;2024-02-28T16:01:26;11.50;62.70
4651;DHT22;2338;49.602;8.722;2024-02-28T16:04:12;11.40;72.30
4651;DHT22;2338;49.602;8.722;2024-02-28T16:06:58;11.30;72.20
4651;DHT22;2338;49.602;8.722;2024-02-28T16:09:45;11.20;75.60
4651;DHT22;2338;49.602;8.722;2024-02-28T16:12:31;11.10;79.80
4651;DHT22;2338;49.602;8.722;2024-02-28T16:15:18;11.00;79.30
4651;DHT22;2338;49.602;8.722;2024-02-28T16:18:03;10.90;85.40
4651;DHT22;2338;49.602;8.722;2024-02-28T16:20:49;10.90;91.20
4651;DHT22;2338;49.602;8.722;2024-02-28T16:23:35;10.80;94.10
4651;DHT22;2338;49.602;8.722;2024-02-28T16:26:21;10.70;97.90
4651;DHT22;2338;49.602;8.722;2024-02-28T16:29:08;10.60;97.50
4651;DHT22;2338;49.602;8.722;2024-02-28T16:31:55;10.50;97.00
4651;DHT22;2338;49.602;8.722;2024-02-28T16:34:41;10.40;98.10
4651;DHT22;2338;49.602;8.722;2024-02-28T16:37:27;10.30;99.90
4651;DHT22;2338;49.602;8.722;2024-02-28T16:40:13;10.10;99.90
4651;DHT22;2338;49.602;8.722;2024-02-28T16:42:58;10.00;99.90
4651;DHT22;2338;49.602;8.722;2024-02-28T16:45:44;9.90;99.90
4651;DHT22;2338;49.602;8.722;2024-02-28T16:48:31;9.80;99.90
4651;DHT22;2338;49.602;8.722;2024-02-28T16:51:17;9.70;99.90
4651;DHT22;2338;49.602;8.722;2024-02-28T16:54:03;9.60;99.90
4651;DHT22;2338;49.602;8.722;2024-02-28T16:56:49;9.50;99.90
4651;DHT22;2338;49.602;8.722;2024-02-28T16:59:35;9.40;99.90
4651;DHT22;2338;49.602;8.722;2024-02-28T17:02:20;9.40;99.90
4651;DHT22;2338;49.602;8.722;2024-02-28T17:05:08;9.20;99.90
4651;DHT22;2338;49.602;8.722;2024-02-28T17:07:53;9.20;99.90
4651;DHT22;2338;49.602;8.722;2024-02-28T17:10:39;8.90;99.90
4651;DHT22;2338;49.602;8.722;2024-02-28T17:13:25;8.80;99.90
4651;DHT22;2338;49.602;8.722;2024-02-28T17:16:10;8.80;99.90
4651;DHT22;2338;49.602;8.722;2024-02-28T17:18:58;8.60;99.90
4651;DHT22;2338;49.602;8.722;2024-02-28T17:21:45;8.50;99.90
4651;DHT22;2338;49.602;8.722;2024-02-28T17:24:31;8.40;99.90
4651;DHT22;2338;49.602;8.722;2024-02-28T17:27:16;8.30;99.90
4651;DHT22;2338;49.602;8.722;2024-02-28T17:30:03;8.20;99.90
4651;DHT22;2338;49.602;8.722;2024-02-28T17:32:50;8.20;99.90
4651;DHT22;2338;49.602;8.722;2024-02-28T17:35:36;8.00;99.90
4651;DHT22;2338;49.602;8.722;2024-02-28T17:38:24;7.90;99.90
4651;DHT22;2338;49.602;8.722;2024-02-28T17:41:10;7.90;99.90
4651;DHT22;2338;49.602;8.722;2024-02-28T17:43:56;7.80;99.90
4651;DHT22;2338;49.602;8.722;2024-02-28T17:46:41;7.80;99.90
4651;DHT22;2338;49.602;8.722;2024-02-28T17:49:27;7.80;99.90
4651;DHT22;2338;49.602;8.722;2024-02-28T17:52:13;7.70;99.90
4651;DHT22;2338;49.602;8.722;2024-02-28T17:55:00;7.70;99.90
4651;DHT22;2338;49.602;8.722;2024-02-28T17:57:45;7.70;99.90
4651;DHT22;2338;49.602;8.722;2024-02-28T18:00:34;7.50;99.90
4651;DHT22;2338;49.602;8.722;2024-02-28T18:03:20;7.50;99.90
4651;DHT22;2338;49.602;8.722;2024-02-28T18:06:06;7.40;99.90
4651;DHT22;2338;49.602;8.722;2024-02-28T18:08:51;7.20;99.90
4651;DHT22;2338;49.602;8.722;2024-02-28T18:11:38;7.20;99.90
4651;DHT22;2338;49.602;8.722;2024-02-28T18:14:24;7.20;99.90
4651;DHT22;2338;49.602;8.722;2024-02-28T18:17:10;7.10;99.90